Ada, West Virginia
Current Conditions -  °F | °C
As of 1:03 PM on Tuesday 21 Oct 2014 (Local Time) from KBLF Reporting Station
Overcast Overcast  
Wind Chill: 51°   Ceiling: 3200
Heat Index: 51°   Visibility: 10mi
Dew Point: 43°   Wind: 14mph
Humidity: 74%   Direction: 300°WNW
Pressure: 29.96"   Gusts: 23mph
Location:  37.2994°N, 81.226°W
Report Text: KBLF 211703Z AUTO 30012G20KT 10SM FEW014 BKN032 OVC039 11/06 A2996 RMK AO2 T01060061
Loading
Personal Weather Stations






























Interactive Weather Map
Tropical Storm Tracking
New forecast layout! Learn more

10-Day Weather Forecast

Advertisements
Track Severe Weather on mobile